Time;durP1;ratioP1;P1;durP2;ratioP2;P2;SDS_P1;SDS_P2;PMS_P1;PMS_P2;Temp;Humidity;BMP_temperature;BMP_pressure;BME280_temperature;BME280_humidity;BME280_pressure;Samples;Min_cycle;Max_cycle;Signal;HPM_P1;HPM_P2
2022/10/04 00:01:21;;;;;;;40.42;21.05;;;;;;;;;;4967477;28;20030;-69
2022/10/04 00:03:51;;;;;;;42.40;21.73;;;;;;;;;;4965491;28;20512;-69
2022/10/04 00:06:19;;;;;;;34.88;20.02;;;;;;;;;;4968459;28;20027;-69
2022/10/04 00:08:48;;;;;;;38.33;19.85;;;;;;;;;;4970657;28;20038;-70
2022/10/04 00:11:17;;;;;;;37.58;20.38;;;;;;;;;;4972208;28;20124;-69
2022/10/04 00:13:47;;;;;;;36.45;20.02;;;;;;;;;;4968112;28;20093;-69
2022/10/04 00:16:20;;;;;;;36.53;21.50;;;;;;;;;;4967623;28;20030;-69
2022/10/04 00:18:46;;;;;;;32.03;20.00;;;;;;;;;;4969859;28;20030;-69
2022/10/04 00:21:12;;;;;;;43.28;21.42;;;;;;;;;;4966973;28;20045;-69
2022/10/04 00:23:38;;;;;;;37.15;20.25;;;;;;;;;;4966521;28;20037;-69
2022/10/04 00:26:06;;;;;;;36.83;20.80;;;;;;;;;;4978048;28;20432;-69
2022/10/04 00:28:35;;;;;;;34.63;19.95;;;;;;;;;;4983572;28;20041;-69
2022/10/04 00:31:16;;;;;;;38.30;20.52;;;;;;;;;;4967400;28;20389;-69
2022/10/04 00:33:45;;;;;;;39.35;20.50;;;;;;;;;;4971619;28;20058;-70
2022/10/04 00:36:23;;;;;;;39.53;20.63;;;;;;;;;;4968652;28;20053;-69
2022/10/04 00:39:05;;;;;;;43.03;20.15;;;;;;;;;;4967625;28;20026;-69
2022/10/04 00:41:37;;;;;;;38.85;19.85;;;;;;;;;;4971700;28;20109;-70
2022/10/04 00:44:04;;;;;;;41.15;20.00;;;;;;;;;;4966717;28;20041;-69
2022/10/04 00:46:32;;;;;;;41.70;19.98;;;;;;;;;;4965103;28;20041;-69
2022/10/04 00:49:00;;;;;;;41.03;19.70;;;;;;;;;;4967834;28;20374;-69
2022/10/04 00:51:39;;;;;;;37.78;20.42;;;;;;;;;;4968690;28;20066;-69
2022/10/04 00:54:16;;;;;;;38.63;20.98;;;;;;;;;;4969794;28;20534;-68
2022/10/04 00:56:50;;;;;;;35.25;19.65;;;;;;;;;;4967485;28;20137;-70
2022/10/04 00:59:35;;;;;;;42.38;21.45;;;;;;;;;;4970748;28;20046;-69
2022/10/04 01:02:07;;;;;;;40.60;20.27;;;;;;;;;;4970754;28;20031;-69
2022/10/04 01:04:42;;;;;;;38.17;20.30;;;;;;;;;;4967601;28;20067;-69
2022/10/04 01:07:09;;;;;;;43.60;21.92;;;;;;;;;;4968966;28;20034;-69
2022/10/04 01:09:44;;;;;;;41.42;21.00;;;;;;;;;;4967868;28;20042;-69
2022/10/04 01:12:14;;;;;;;45.25;22.35;;;;;;;;;;4961493;28;20031;-69
2022/10/04 01:14:51;;;;;;;41.17;22.83;;;;;;;;;;4968131;28;20411;-69
2022/10/04 01:17:18;;;;;;;42.20;22.90;;;;;;;;;;4966971;28;20077;-69
2022/10/04 01:19:52;;;;;;;42.30;21.73;;;;;;;;;;4970280;28;20047;-69
2022/10/04 01:22:35;;;;;;;40.15;22.10;;;;;;;;;;4968212;28;20035;-69
2022/10/04 01:25:02;;;;;;;40.38;22.50;;;;;;;;;;4969309;28;20037;-68
2022/10/04 01:27:28;;;;;;;43.75;23.63;;;;;;;;;;4967000;28;20045;-69
2022/10/04 01:29:54;;;;;;;42.97;23.48;;;;;;;;;;4967711;28;20031;-69
2022/10/04 01:32:21;;;;;;;50.22;24.58;;;;;;;;;;4977481;28;20046;-69
2022/10/04 01:34:48;;;;;;;45.67;23.88;;;;;;;;;;4970441;28;20034;-68
2022/10/04 01:37:14;;;;;;;46.90;26.05;;;;;;;;;;4969175;28;20189;-69
2022/10/04 01:39:40;;;;;;;44.97;24.67;;;;;;;;;;4968942;28;20579;-68
2022/10/04 01:42:15;;;;;;;42.42;24.90;;;;;;;;;;4968274;28;20034;-68
2022/10/04 01:44:50;;;;;;;48.60;24.90;;;;;;;;;;4968923;28;20041;-68
2022/10/04 01:47:22;;;;;;;48.72;25.15;;;;;;;;;;4962999;28;20562;-68
2022/10/04 01:49:50;;;;;;;46.83;26.85;;;;;;;;;;4967308;28;20115;-69
2022/10/04 01:52:27;;;;;;;48.15;24.77;;;;;;;;;;4966847;28;20034;-68
2022/10/04 01:55:06;;;;;;;44.47;24.20;;;;;;;;;;4971631;28;20058;-68
2022/10/04 01:57:42;;;;;;;40.28;24.60;;;;;;;;;;4966382;28;20500;-69
2022/10/04 02:00:09;;;;;;;42.60;24.77;;;;;;;;;;4969180;28;20030;-69
2022/10/04 02:02:41;;;;;;;45.65;26.08;;;;;;;;;;4965337;28;20034;-69
2022/10/04 02:05:10;;;;;;;43.05;24.23;;;;;;;;;;4967021;28;20090;-69
2022/10/04 02:07:38;;;;;;;42.90;26.00;;;;;;;;;;4966484;28;20057;-71
2022/10/04 02:10:06;;;;;;;50.72;27.25;;;;;;;;;;4969854;28;20045;-71
2022/10/04 02:12:33;;;;;;;56.38;26.48;;;;;;;;;;4970059;28;20427;-70
2022/10/04 02:15:01;;;;;;;43.15;25.77;;;;;;;;;;4967032;28;20030;-69
2022/10/04 02:17:28;;;;;;;55.20;27.50;;;;;;;;;;4966190;28;20034;-69
2022/10/04 02:19:56;;;;;;;48.30;27.15;;;;;;;;;;4967725;28;20745;-69
2022/10/04 02:22:23;;;;;;;47.92;27.77;;;;;;;;;;4967787;28;20022;-70
2022/10/04 02:24:50;;;;;;;46.42;27.73;;;;;;;;;;4964062;28;20500;-68
2022/10/04 02:27:16;;;;;;;54.58;29.35;;;;;;;;;;4965893;28;20144;-71
2022/10/04 02:29:42;;;;;;;52.65;29.92;;;;;;;;;;4977656;28;20047;-69
2022/10/04 02:34:54;;;;;;;55.55;31.25;;;;;;;;;;4968285;28;20139;-69
2022/10/04 02:37:22;;;;;;;50.33;30.38;;;;;;;;;;4968952;28;20028;-69
2022/10/04 02:39:52;;;;;;;58.10;31.58;;;;;;;;;;4965644;28;20045;-68
2022/10/04 02:42:24;;;;;;;58.07;32.93;;;;;;;;;;4970783;28;20035;-69
2022/10/04 02:44:52;;;;;;;56.13;33.72;;;;;;;;;;4967056;28;20506;-69
2022/10/04 02:47:24;;;;;;;62.25;33.42;;;;;;;;;;4969191;28;20041;-69
2022/10/04 02:49:54;;;;;;;54.70;32.42;;;;;;;;;;4965152;28;20535;-68
2022/10/04 02:52:33;;;;;;;58.58;33.53;;;;;;;;;;4962001;28;20496;-68
2022/10/04 02:55:02;;;;;;;57.95;33.10;;;;;;;;;;4967529;28;20562;-69
2022/10/04 02:57:31;;;;;;;56.28;33.25;;;;;;;;;;4961615;28;20034;-69
2022/10/04 03:00:12;;;;;;;66.22;32.97;;;;;;;;;;4969752;28;20081;-68
2022/10/04 03:02:38;;;;;;;68.50;34.75;;;;;;;;;;4969682;28;20027;-69
2022/10/04 03:05:06;;;;;;;62.20;33.65;;;;;;;;;;4964049;28;20152;-72
2022/10/04 03:07:33;;;;;;;56.97;34.35;;;;;;;;;;4976734;28;20027;-68
2022/10/04 03:09:59;;;;;;;67.10;33.90;;;;;;;;;;4970101;28;20035;-71
2022/10/04 03:12:25;;;;;;;57.50;34.15;;;;;;;;;;4966208;28;20030;-69
2022/10/04 03:14:52;;;;;;;53.90;35.35;;;;;;;;;;4966692;28;20042;-68
2022/10/04 03:17:18;;;;;;;68.63;36.40;;;;;;;;;;4965157;28;20030;-69
2022/10/04 03:19:47;;;;;;;62.33;35.15;;;;;;;;;;4963522;28;20607;-68
2022/10/04 03:22:13;;;;;;;74.90;38.10;;;;;;;;;;4963895;28;20549;-69
2022/10/04 03:24:48;;;;;;;68.82;37.03;;;;;;;;;;4968711;28;20089;-69
2022/10/04 03:27:16;;;;;;;70.97;37.38;;;;;;;;;;4965746;28;20026;-69
2022/10/04 03:29:42;;;;;;;63.65;38.15;;;;;;;;;;4966589;28;20129;-68
2022/10/04 03:32:12;;;;;;;75.45;37.95;;;;;;;;;;4968755;28;20049;-69
2022/10/04 03:34:39;;;;;;;82.75;42.30;;;;;;;;;;4964520;28;20117;-68
2022/10/04 03:37:09;;;;;;;86.03;42.15;;;;;;;;;;4964135;28;20043;-69
2022/10/04 03:39:37;;;;;;;76.67;40.10;;;;;;;;;;4966384;28;20034;-69
2022/10/04 03:42:06;;;;;;;86.95;43.90;;;;;;;;;;4968520;28;20286;-69
2022/10/04 03:44:33;;;;;;;85.38;41.60;;;;;;;;;;4969137;28;20018;-69
2022/10/04 03:46:59;;;;;;;90.25;43.75;;;;;;;;;;4967221;28;21635;-70
2022/10/04 03:49:31;;;;;;;93.10;42.97;;;;;;;;;;4964567;28;20623;-70
2022/10/04 03:51:57;;;;;;;81.97;42.30;;;;;;;;;;4963933;28;20030;-69
2022/10/04 03:54:26;;;;;;;83.82;42.47;;;;;;;;;;4965637;28;20078;-69
2022/10/04 03:56:53;;;;;;;86.63;43.55;;;;;;;;;;4967602;28;20515;-69
2022/10/04 03:59:20;;;;;;;97.05;47.03;;;;;;;;;;4967516;28;20122;-69
2022/10/04 04:01:55;;;;;;;96.70;46.53;;;;;;;;;;4967847;28;20287;-69
2022/10/04 04:04:29;;;;;;;101.28;49.20;;;;;;;;;;4970788;28;20859;-70
2022/10/04 04:07:03;;;;;;;83.38;44.58;;;;;;;;;;4964925;28;20058;-69
2022/10/04 04:09:32;;;;;;;99.78;47.97;;;;;;;;;;4964865;28;20027;-70
2022/10/04 04:11:59;;;;;;;92.75;48.08;;;;;;;;;;4965449;28;20050;-68
2022/10/04 04:14:26;;;;;;;102.22;48.85;;;;;;;;;;4980619;28;20532;-70
2022/10/04 04:16:54;;;;;;;104.43;51.05;;;;;;;;;;4964871;28;20038;-70
2022/10/04 04:19:22;;;;;;;112.55;50.67;;;;;;;;;;4965887;28;20492;-69
2022/10/04 04:21:49;;;;;;;112.32;53.60;;;;;;;;;;4966849;28;20109;-69
2022/10/04 04:24:27;;;;;;;115.00;54.28;;;;;;;;;;4969378;28;20038;-69
2022/10/04 04:26:56;;;;;;;127.55;57.95;;;;;;;;;;4967984;28;20443;-69
2022/10/04 04:29:33;;;;;;;132.70;58.63;;;;;;;;;;4971410;28;20029;-69
2022/10/04 04:32:04;;;;;;;119.05;58.47;;;;;;;;;;4967256;28;20107;-69
2022/10/04 04:34:30;;;;;;;;;;;;;;;;;;4971401;28;20050;-70
2022/10/04 04:37:04;;;;;;;126.22;56.40;;;;;;;;;;4968288;28;20374;-69
2022/10/04 04:39:35;;;;;;;114.38;52.80;;;;;;;;;;4986568;28;20030;-70
2022/10/04 04:42:04;;;;;;;122.35;56.25;;;;;;;;;;4969228;28;20562;-69
2022/10/04 04:44:30;;;;;;;131.05;58.40;;;;;;;;;;4972241;28;20043;-69
2022/10/04 04:46:59;;;;;;;133.93;56.80;;;;;;;;;;4968537;28;20126;-69
2022/10/04 04:49:26;;;;;;;136.98;60.08;;;;;;;;;;4967157;28;20994;-69
2022/10/04 04:51:52;;;;;;;144.75;61.15;;;;;;;;;;4964514;28;20541;-69
2022/10/04 04:54:22;;;;;;;134.43;60.75;;;;;;;;;;4971748;28;20512;-69
2022/10/04 04:56:50;;;;;;;150.82;63.47;;;;;;;;;;4969481;28;20049;-69
2022/10/04 04:59:16;;;;;;;138.80;62.58;;;;;;;;;;4967259;28;20056;-69
2022/10/04 05:01:44;;;;;;;136.75;61.25;;;;;;;;;;4966119;28;20026;-69
2022/10/04 05:04:13;;;;;;;139.43;64.03;;;;;;;;;;4972880;28;20030;-68
2022/10/04 05:06:59;;;;;;;157.18;66.47;;;;;;;;;;4967913;28;20046;-68
2022/10/04 05:09:25;;;;;;;151.75;67.80;;;;;;;;;;4964182;28;20027;-68
2022/10/04 05:11:53;;;;;;;147.23;69.25;;;;;;;;;;4965182;28;20131;-69
2022/10/04 05:14:19;;;;;;;148.98;68.03;;;;;;;;;;4968734;28;20587;-68
2022/10/04 05:16:48;;;;;;;162.50;70.93;;;;;;;;;;4963138;28;20047;-68
2022/10/04 05:19:35;;;;;;;154.23;67.10;;;;;;;;;;4971064;28;20085;-69
2022/10/04 05:22:03;;;;;;;154.13;68.07;;;;;;;;;;4962140;28;20604;-68
2022/10/04 05:24:31;;;;;;;155.13;69.78;;;;;;;;;;4965290;28;20088;-68
2022/10/04 05:26:58;;;;;;;160.07;69.25;;;;;;;;;;4960703;28;20023;-68
2022/10/04 05:29:27;;;;;;;163.77;69.05;;;;;;;;;;4968159;28;20396;-68
2022/10/04 05:32:06;;;;;;;158.48;70.28;;;;;;;;;;4969407;28;20026;-68
2022/10/04 05:34:38;;;;;;;155.70;66.20;;;;;;;;;;4965963;28;20034;-68
2022/10/04 05:37:13;;;;;;;163.30;69.18;;;;;;;;;;4965283;28;20201;-68
2022/10/04 05:39:43;;;;;;;155.95;68.32;;;;;;;;;;4965012;28;20053;-68
2022/10/04 05:42:14;;;;;;;161.38;69.15;;;;;;;;;;4965641;28;20066;-68
2022/10/04 05:44:50;;;;;;;162.18;69.40;;;;;;;;;;4966165;28;20042;-68
2022/10/04 05:47:22;;;;;;;151.90;66.75;;;;;;;;;;4965202;28;20034;-69
2022/10/04 05:49:49;;;;;;;137.65;65.15;;;;;;;;;;4964498;28;20117;-68
2022/10/04 05:52:24;;;;;;;147.20;65.18;;;;;;;;;;4962736;28;20034;-70
2022/10/04 05:55:10;;;;;;;147.25;65.53;;;;;;;;;;4961303;28;21323;-69
2022/10/04 05:57:44;;;;;;;144.05;63.60;;;;;;;;;;4962497;28;20022;-69
2022/10/04 06:00:15;;;;;;;148.70;64.93;;;;;;;;;;4965540;28;20484;-70
2022/10/04 06:03:05;;;;;;;146.23;63.90;;;;;;;;;;4967659;28;20022;-68
2022/10/04 06:05:40;;;;;;;135.45;63.95;;;;;;;;;;4962425;28;20071;-69
2022/10/04 06:08:16;;;;;;;133.25;61.38;;;;;;;;;;4964869;28;20031;-69
2022/10/04 06:11:11;;;;;;;138.55;59.55;;;;;;;;;;4966387;28;21334;-69
2022/10/04 06:13:40;;;;;;;110.80;56.22;;;;;;;;;;4962142;28;20098;-69
2022/10/04 06:16:19;;;;;;;123.07;57.25;;;;;;;;;;4964937;28;20035;-69
2022/10/04 06:19:03;;;;;;;110.32;51.10;;;;;;;;;;4969940;28;21708;-69
2022/10/04 06:21:56;;;;;;;107.45;50.22;;;;;;;;;;4965491;28;20039;-69
2022/10/04 06:24:27;;;;;;;113.85;51.45;;;;;;;;;;4965178;28;20106;-69
2022/10/04 06:27:02;;;;;;;112.38;52.17;;;;;;;;;;4967714;28;20061;-69
2022/10/04 06:29:31;;;;;;;102.22;50.17;;;;;;;;;;4959507;28;20523;-70
2022/10/04 06:32:09;;;;;;;119.45;54.75;;;;;;;;;;4961078;28;20134;-69
2022/10/04 06:34:44;;;;;;;110.82;54.10;;;;;;;;;;4962535;28;20503;-69
2022/10/04 06:37:30;;;;;;;104.47;52.78;;;;;;;;;;4966634;28;20019;-70
2022/10/04 06:39:58;;;;;;;99.70;51.40;;;;;;;;;;4961474;28;20062;-69
2022/10/04 06:42:38;;;;;;;106.88;52.38;;;;;;;;;;4962813;28;20572;-69
2022/10/04 06:45:05;;;;;;;97.07;50.38;;;;;;;;;;4961525;28;20078;-69
2022/10/04 06:47:36;;;;;;;90.22;48.85;;;;;;;;;;4961820;28;20031;-70
2022/10/04 06:50:13;;;;;;;90.22;43.03;;;;;;;;;;4962635;28;20040;-69
2022/10/04 06:52:59;;;;;;;73.70;42.33;;;;;;;;;;4964106;28;20031;-69
2022/10/04 06:55:34;;;;;;;69.25;39.00;;;;;;;;;;4964250;28;20066;-70
2022/10/04 06:58:01;;;;;;;69.30;40.55;;;;;;;;;;4965865;28;20026;-69
2022/10/04 07:00:29;;;;;;;64.93;38.67;;;;;;;;;;4965672;28;20035;-70
2022/10/04 07:03:01;;;;;;;57.80;34.78;;;;;;;;;;4964423;28;20042;-70
2022/10/04 07:05:45;;;;;;;62.17;34.33;;;;;;;;;;4963536;28;20030;-70
2022/10/04 07:08:39;;;;;;;66.55;32.03;;;;;;;;;;4966746;28;20503;-70
2022/10/04 07:11:13;;;;;;;66.15;32.05;;;;;;;;;;4961975;28;20034;-69
2022/10/04 07:13:42;;;;;;;56.60;29.83;;;;;;;;;;4965179;28;20039;-69
2022/10/04 07:16:08;;;;;;;52.63;28.38;;;;;;;;;;4964322;28;20039;-69
2022/10/04 07:18:37;;;;;;;49.85;28.83;;;;;;;;;;4967052;28;20034;-69
2022/10/04 07:21:09;;;;;;;48.95;27.55;;;;;;;;;;4964381;28;20031;-69
2022/10/04 07:23:39;;;;;;;47.50;26.05;;;;;;;;;;4965230;28;20496;-69
2022/10/04 07:26:15;;;;;;;42.92;26.15;;;;;;;;;;4966513;28;20106;-69
2022/10/04 07:31:33;;;;;;;33.80;20.83;;;;;;;;;;4964506;28;20115;-70
2022/10/04 07:34:10;;;;;;;35.17;20.60;;;;;;;;;;4964046;28;20520;-70
2022/10/04 07:36:51;;;;;;;29.52;18.77;;;;;;;;;;4964083;28;20034;-70
2022/10/04 07:39:33;;;;;;;36.00;18.80;;;;;;;;;;4963792;28;20182;-69
2022/10/04 07:42:17;;;;;;;32.42;17.38;;;;;;;;;;4963103;28;20050;-69
2022/10/04 07:44:47;;;;;;;34.20;17.48;;;;;;;;;;4966413;28;20029;-69
2022/10/04 07:47:13;;;;;;;31.67;16.05;;;;;;;;;;4964208;28;20576;-70
2022/10/04 07:49:39;;;;;;;29.98;15.50;;;;;;;;;;4963400;28;20507;-70
2022/10/04 07:52:24;;;;;;;26.92;15.60;;;;;;;;;;4967737;28;20162;-69
2022/10/04 07:55:08;;;;;;;33.00;15.88;;;;;;;;;;4972058;28;20061;-70
2022/10/04 07:57:47;;;;;;;27.90;16.63;;;;;;;;;;4971592;28;20475;-69
2022/10/04 08:00:36;;;;;;;26.05;15.27;;;;;;;;;;4968994;28;20042;-69
2022/10/04 08:03:21;;;;;;;27.42;15.30;;;;;;;;;;4958508;28;20030;-69
2022/10/04 08:05:51;;;;;;;29.27;15.45;;;;;;;;;;4978189;28;20219;-70
2022/10/04 08:08:36;;;;;;;19.17;13.70;;;;;;;;;;4985999;28;20429;-70
2022/10/04 08:11:05;;;;;;;30.58;16.30;;;;;;;;;;4972714;28;20034;-70
2022/10/04 08:13:51;;;;;;;25.45;14.85;;;;;;;;;;4971348;28;20035;-70
2022/10/04 08:16:36;;;;;;;22.80;14.07;;;;;;;;;;4970507;28;20045;-69
2022/10/04 08:19:13;;;;;;;27.88;13.60;;;;;;;;;;4972282;28;20026;-70
2022/10/04 08:21:48;;;;;;;22.27;12.85;;;;;;;;;;4976219;28;20044;-69
2022/10/04 08:24:24;;;;;;;25.90;12.00;;;;;;;;;;4971127;28;20046;-69
2022/10/04 08:27:01;;;;;;;25.42;12.60;;;;;;;;;;4973410;28;20434;-69
2022/10/04 08:29:42;;;;;;;24.25;12.85;;;;;;;;;;4993687;28;20042;-69
2022/10/04 08:32:08;;;;;;;;;;;;;;;;;;4966774;28;20050;-69
2022/10/04 08:34:53;;;;;;;18.67;10.43;;;;;;;;;;4971471;28;20398;-70
2022/10/04 08:37:28;;;;;;;25.58;10.85;;;;;;;;;;4957209;28;20039;-70
2022/10/04 08:39:57;;;;;;;19.38;11.27;;;;;;;;;;4972870;28;20026;-69
2022/10/04 08:42:32;;;;;;;20.92;10.55;;;;;;;;;;4978405;28;20097;-69
2022/10/04 08:45:07;;;;;;;17.20;10.35;;;;;;;;;;4970945;28;20034;-70
2022/10/04 08:47:49;;;;;;;20.55;11.40;;;;;;;;;;4969782;28;20484;-69
2022/10/04 08:50:33;;;;;;;20.08;10.80;;;;;;;;;;4971035;28;20030;-69
2022/10/04 08:53:19;;;;;;;21.30;12.10;;;;;;;;;;4979457;28;20031;-69
2022/10/04 08:56:04;;;;;;;21.55;10.80;;;;;;;;;;4971625;28;20449;-69
2022/10/04 08:58:35;;;;;;;19.20;11.50;;;;;;;;;;4976724;28;20113;-69
2022/10/04 09:01:40;;;;;;;22.55;11.63;;;;;;;;;;4986854;28;20181;-68
2022/10/04 09:04:06;;;;;;;19.40;11.10;;;;;;;;;;4988200;28;20037;-69
2022/10/04 09:06:50;;;;;;;19.17;10.13;;;;;;;;;;4983621;28;20026;-69
2022/10/04 09:09:35;;;;;;;14.52;10.23;;;;;;;;;;4978941;28;20185;-68
2022/10/04 09:12:14;;;;;;;20.02;11.18;;;;;;;;;;4970008;28;20113;-69
2022/10/04 09:14:41;;;;;;;21.00;10.20;;;;;;;;;;4970936;28;20098;-70
2022/10/04 09:17:13;;;;;;;15.07;9.65;;;;;;;;;;4974233;28;20058;-69
2022/10/04 09:19:39;;;;;;;27.77;9.95;;;;;;;;;;4973899;28;20399;-69
2022/10/04 09:22:16;;;;;;;18.52;9.90;;;;;;;;;;4977347;28;20113;-69
2022/10/04 09:24:42;;;;;;;19.00;10.70;;;;;;;;;;4983447;28;20038;-69
2022/10/04 09:27:18;;;;;;;17.10;9.20;;;;;;;;;;4979148;28;20031;-68
2022/10/04 09:29:50;;;;;;;17.08;9.93;;;;;;;;;;4957671;28;20066;-69
2022/10/04 09:32:31;;;;;;;19.67;9.77;;;;;;;;;;4975027;28;20477;-69
2022/10/04 09:34:57;;;;;;;;;;;;;;;;;;4971245;28;20030;-69
2022/10/04 09:37:32;;;;;;;21.27;9.95;;;;;;;;;;4975339;28;19913;-68
2022/10/04 09:40:18;;;;;;;32.72;9.90;;;;;;;;;;4972830;28;20094;-70
2022/10/04 09:42:53;;;;;;;19.00;9.85;;;;;;;;;;4960971;28;20027;-70
2022/10/04 09:45:43;;;;;;;29.45;10.60;;;;;;;;;;4973131;28;20471;-68
2022/10/04 09:48:20;;;;;;;18.33;9.57;;;;;;;;;;4976647;28;20031;-69
2022/10/04 09:51:06;;;;;;;24.80;10.85;;;;;;;;;;4973341;28;20515;-69
2022/10/04 09:53:55;;;;;;;20.45;9.57;;;;;;;;;;4970572;28;20110;-69
2022/10/04 09:56:30;;;;;;;17.35;10.07;;;;;;;;;;4977694;28;20579;-69
2022/10/04 09:59:02;;;;;;;24.10;10.30;;;;;;;;;;4986781;28;20471;-69
2022/10/04 10:01:28;;;;;;;20.35;10.50;;;;;;;;;;4974664;28;20026;-69
2022/10/04 10:03:54;;;;;;;22.35;11.50;;;;;;;;;;4971964;28;20070;-69
2022/10/04 10:06:28;;;;;;;22.02;11.20;;;;;;;;;;4972700;28;20035;-69
2022/10/04 10:09:13;;;;;;;22.83;10.48;;;;;;;;;;4970208;28;20042;-69
2022/10/04 10:14:33;;;;;;;22.67;10.60;;;;;;;;;;4968499;28;20042;-70
2022/10/04 10:17:19;;;;;;;19.02;9.20;;;;;;;;;;4974204;28;20046;-69
2022/10/04 10:20:18;;;;;;;15.10;9.23;;;;;;;;;;4969353;28;20109;-70
2022/10/04 10:23:00;;;;;;;32.50;9.77;;;;;;;;;;4968491;28;20046;-70
2022/10/04 10:25:26;;;;;;;15.48;8.80;;;;;;;;;;4961736;28;20037;-70
2022/10/04 10:27:52;;;;;;;14.00;7.78;;;;;;;;;;4968271;28;20387;-70
2022/10/04 10:30:18;;;;;;;13.68;8.60;;;;;;;;;;4967193;28;20066;-71
2022/10/04 10:33:02;;;;;;;16.83;8.65;;;;;;;;;;4965075;28;20511;-71
2022/10/04 10:35:36;;;;;;;15.80;8.85;;;;;;;;;;4976285;28;20412;-70
2022/10/04 10:38:22;;;;;;;15.45;8.13;;;;;;;;;;4969976;28;20060;-70
2022/10/04 10:41:07;;;;;;;21.50;9.20;;;;;;;;;;4963926;28;20496;-71
2022/10/04 10:43:52;;;;;;;18.65;8.20;;;;;;;;;;4961136;28;20488;-70
2022/10/04 10:46:18;;;;;;;15.80;8.93;;;;;;;;;;4959389;28;20038;-71
2022/10/04 10:48:44;;;;;;;15.60;8.88;;;;;;;;;;4965213;28;20038;-71
2022/10/04 10:51:19;;;;;;;16.95;8.80;;;;;;;;;;4976359;28;20145;-70
2022/10/04 10:53:51;;;;;;;21.23;9.80;;;;;;;;;;4963718;28;20046;-70
2022/10/04 10:56:39;;;;;;;17.00;9.52;;;;;;;;;;4964811;28;20058;-70
2022/10/04 10:59:05;;;;;;;19.00;10.30;;;;;;;;;;4965045;28;20065;-70
2022/10/04 11:01:52;;;;;;;21.08;9.60;;;;;;;;;;4964062;28;20852;-71
2022/10/04 11:04:37;;;;;;;15.85;8.93;;;;;;;;;;4963873;28;20037;-70
2022/10/04 11:07:29;;;;;;;19.83;9.02;;;;;;;;;;4965495;28;20026;-71
2022/10/04 11:10:14;;;;;;;18.65;9.35;;;;;;;;;;4972352;28;20046;-70
2022/10/04 11:12:58;;;;;;;18.08;9.77;;;;;;;;;;4963459;28;20547;-70
2022/10/04 11:15:35;;;;;;;16.48;9.77;;;;;;;;;;4963842;28;20570;-70
2022/10/04 11:18:15;;;;;;;18.38;9.40;;;;;;;;;;4967321;28;20039;-70
2022/10/04 11:21:00;;;;;;;19.58;8.60;;;;;;;;;;4964637;28;20034;-69
2022/10/04 11:23:58;;;;;;;18.20;9.23;;;;;;;;;;4960719;28;20070;-69
2022/10/04 11:26:36;;;;;;;19.38;9.55;;;;;;;;;;4970194;28;20048;-69
2022/10/04 11:29:11;;;;;;;15.02;7.85;;;;;;;;;;4961439;28;20237;-70
2022/10/04 11:31:55;;;;;;;15.55;7.70;;;;;;;;;;4966979;28;20057;-69
2022/10/04 11:34:40;;;;;;;20.15;8.73;;;;;;;;;;4962790;28;20349;-71
2022/10/04 11:37:07;;;;;;;30.30;8.30;;;;;;;;;;4966034;28;20042;-71
2022/10/04 11:39:47;;;;;;;21.65;8.18;;;;;;;;;;4971832;28;20046;-70
2022/10/04 11:42:19;;;;;;;14.07;7.60;;;;;;;;;;4963321;28;20035;-70
2022/10/04 11:45:01;;;;;;;27.23;7.55;;;;;;;;;;4966414;28;20088;-70
2022/10/04 11:47:46;;;;;;;16.58;7.32;;;;;;;;;;4965351;28;21762;-70
2022/10/04 11:50:34;;;;;;;15.43;7.32;;;;;;;;;;4969998;28;20030;-69
2022/10/04 11:53:20;;;;;;;13.98;7.10;;;;;;;;;;4969758;28;20548;-71
2022/10/04 11:55:52;;;;;;;15.30;7.72;;;;;;;;;;4966965;28;20047;-70
2022/10/04 11:58:31;;;;;;;15.00;7.95;;;;;;;;;;4969988;28;20118;-71
2022/10/04 12:01:15;;;;;;;15.93;8.23;;;;;;;;;;4968579;28;20038;-72
2022/10/04 12:03:50;;;;;;;24.75;8.25;;;;;;;;;;4967130;28;20131;-71
2022/10/04 12:06:16;;;;;;;15.55;8.38;;;;;;;;;;4970009;28;20051;-71
2022/10/04 12:08:47;;;;;;;23.23;8.40;;;;;;;;;;4965568;28;20359;-70
2022/10/04 12:14:30;;;;;;;17.67;7.93;;;;;;;;;;4967723;28;20162;-71
2022/10/04 12:16:56;;;;;;;17.08;8.18;;;;;;;;;;4965638;28;20531;-70
2022/10/04 12:19:31;;;;;;;20.77;9.05;;;;;;;;;;4971203;28;20110;-70
2022/10/04 12:21:58;;;;;;;17.00;8.50;;;;;;;;;;4966838;28;20130;-69
2022/10/04 12:24:39;;;;;;;13.95;7.60;;;;;;;;;;4969601;28;20033;-70
2022/10/04 12:27:20;;;;;;;20.25;8.52;;;;;;;;;;4965373;28;20108;-70
2022/10/04 12:30:01;;;;;;;13.38;8.00;;;;;;;;;;4968981;28;20037;-71
2022/10/04 12:32:43;;;;;;;14.30;8.20;;;;;;;;;;4970702;28;20487;-71
2022/10/04 12:35:18;;;;;;;23.08;7.63;;;;;;;;;;4965605;28;20030;-69
2022/10/04 12:38:20;;;;;;;17.92;8.65;;;;;;;;;;4965203;28;20062;-70
2022/10/04 12:40:52;;;;;;;22.08;9.02;;;;;;;;;;4999261;28;20112;-71
2022/10/04 12:43:26;;;;;;;14.60;8.43;;;;;;;;;;4971002;28;20054;-69
2022/10/04 12:45:55;;;;;;;24.40;9.05;;;;;;;;;;4965974;28;20042;-69
2022/10/04 12:48:43;;;;;;;22.30;8.93;;;;;;;;;;4965015;28;20027;-72
2022/10/04 12:51:27;;;;;;;16.63;8.07;;;;;;;;;;4965640;28;20097;-70
2022/10/04 12:54:12;;;;;;;23.63;9.38;;;;;;;;;;4967303;28;20034;-71
2022/10/04 12:56:44;;;;;;;15.77;8.77;;;;;;;;;;4968394;28;20693;-71
2022/10/04 12:59:19;;;;;;;22.35;8.95;;;;;;;;;;4968122;28;20412;-70
2022/10/04 13:02:08;;;;;;;13.43;8.43;;;;;;;;;;4965582;28;20434;-70
2022/10/04 13:04:53;;;;;;;20.17;9.05;;;;;;;;;;4977833;28;20118;-70
2022/10/04 13:07:38;;;;;;;20.08;8.95;;;;;;;;;;4977978;28;20026;-70
2022/10/04 13:10:24;;;;;;;24.30;9.32;;;;;;;;;;4970195;28;20035;-71
2022/10/04 13:12:56;;;;;;;15.05;8.10;;;;;;;;;;4967109;28;20027;-70
2022/10/04 13:15:22;;;;;;;15.10;7.90;;;;;;;;;;4964696;28;20027;-70
2022/10/04 13:18:08;;;;;;;21.38;8.05;;;;;;;;;;4966073;28;20074;-72
2022/10/04 13:20:34;;;;;;;16.85;8.27;;;;;;;;;;4965282;28;20042;-71
2022/10/04 13:23:00;;;;;;;15.10;8.32;;;;;;;;;;4965828;28;20530;-70
2022/10/04 13:25:35;;;;;;;21.95;8.07;;;;;;;;;;4964495;28;20053;-70
2022/10/04 13:28:06;;;;;;;17.63;7.72;;;;;;;;;;4968120;28;20472;-69
2022/10/04 13:30:37;;;;;;;15.18;6.63;;;;;;;;;;4979388;28;20038;-72
2022/10/04 13:33:15;;;;;;;17.95;7.00;;;;;;;;;;4967059;28;20085;-71
2022/10/04 13:35:59;;;;;;;22.48;7.53;;;;;;;;;;4965513;28;20035;-71
2022/10/04 13:38:28;;;;;;;28.00;8.95;;;;;;;;;;4969436;28;20060;-72
2022/10/04 13:41:05;;;;;;;23.15;8.45;;;;;;;;;;4964788;28;20023;-72
2022/10/04 13:43:40;;;;;;;15.90;8.43;;;;;;;;;;4964439;28;20096;-71
2022/10/04 13:46:09;;;;;;;15.52;8.73;;;;;;;;;;4966767;28;20031;-71
2022/10/04 13:48:41;;;;;;;18.73;9.07;;;;;;;;;;4967757;28;20041;-70
2022/10/04 13:51:22;;;;;;;16.98;9.02;;;;;;;;;;4962808;28;20022;-70
2022/10/04 13:56:59;;;;;;;19.00;9.55;;;;;;;;;;4964568;28;20057;-71
2022/10/04 13:59:34;;;;;;;20.15;9.27;;;;;;;;;;4966327;28;20031;-70
2022/10/04 14:02:12;;;;;;;23.40;9.15;;;;;;;;;;4964459;28;20031;-71
2022/10/04 14:04:56;;;;;;;22.70;9.23;;;;;;;;;;4963523;28;20037;-71
2022/10/04 14:07:37;;;;;;;19.75;9.15;;;;;;;;;;4964903;28;20031;-71
2022/10/04 14:10:15;;;;;;;16.77;9.23;;;;;;;;;;4966291;28;20062;-72
2022/10/04 14:12:47;;;;;;;14.93;8.73;;;;;;;;;;4963928;28;20550;-69
2022/10/04 14:15:20;;;;;;;15.10;8.45;;;;;;;;;;4963027;28;20035;-70
2022/10/04 14:17:46;;;;;;;19.98;8.38;;;;;;;;;;4966804;28;20031;-70
2022/10/04 14:20:22;;;;;;;13.52;7.35;;;;;;;;;;4965823;28;20035;-71
2022/10/04 14:22:52;;;;;;;12.93;6.38;;;;;;;;;;4965995;28;20042;-71
2022/10/04 14:25:41;;;;;;;19.98;7.07;;;;;;;;;;4965382;28;20511;-71
2022/10/04 14:28:30;;;;;;;12.77;6.82;;;;;;;;;;4968220;28;20219;-72
2022/10/04 14:31:07;;;;;;;15.13;7.10;;;;;;;;;;4960279;28;20782;-71
2022/10/04 14:33:53;;;;;;;16.13;7.20;;;;;;;;;;4965508;28;20034;-71
2022/10/04 14:36:19;;;;;;;14.93;6.97;;;;;;;;;;4965945;28;20035;-71
2022/10/04 14:39:04;;;;;;;15.95;7.60;;;;;;;;;;4965204;28;20038;-71
2022/10/04 14:41:30;;;;;;;12.52;7.15;;;;;;;;;;4965003;28;20030;-71
2022/10/04 14:43:59;;;;;;;17.42;7.68;;;;;;;;;;4965635;28;20034;-71
2022/10/04 14:46:31;;;;;;;13.23;7.50;;;;;;;;;;4979877;28;20061;-71
2022/10/04 14:49:10;;;;;;;18.83;7.88;;;;;;;;;;4966029;28;20126;-70
2022/10/04 14:51:38;;;;;;;17.27;8.05;;;;;;;;;;4965687;28;20125;-71
2022/10/04 14:54:07;;;;;;;16.48;8.13;;;;;;;;;;4967791;28;20060;-71
2022/10/04 14:56:38;;;;;;;18.00;8.93;;;;;;;;;;4978294;28;20035;-70
2022/10/04 14:59:04;;;;;;;;;;;;;;;;;;4963509;28;20511;-70
2022/10/04 15:01:31;;;;;;;13.75;8.38;;;;;;;;;;4961733;28;19952;-71
2022/10/04 15:04:16;;;;;;;17.55;8.95;;;;;;;;;;4965535;28;20062;-71
2022/10/04 15:06:50;;;;;;;17.95;8.80;;;;;;;;;;4963497;28;20033;-70
2022/10/04 15:09:35;;;;;;;13.77;8.95;;;;;;;;;;4960570;28;20144;-71
2022/10/04 15:12:00;;;;;;;17.40;8.68;;;;;;;;;;4957941;28;20037;-69
2022/10/04 15:14:33;;;;;;;18.20;8.55;;;;;;;;;;4958773;28;20657;-72
2022/10/04 15:17:01;;;;;;;15.38;9.40;;;;;;;;;;4963141;28;20069;-69